Weather at Amsterdam Airport Schiphol

Public forecast

Using degrees Celsius for public forecast. Weather courtesy of forecast.io.

Current aviation weather report (METAR) for Amsterdam Airport Schiphol

Retrieved 2021/10/22 06:25 UTC (0 seconds ago):

EHAM 220625Z 26019G29KT 230V290 9999 FEW027 SCT045 11/05 Q1011 NOSIG

Aviation forecast (TAF) for Amsterdam Airport Schiphol

Retrieved 2021/10/22 06:27 UTC (0 seconds ago):

TAF TAF EHAM 220438Z 2206/2312 27018G28KT 9999 SCT030 PROB30 TEMPO 2206/2212 7000 -SHRA SCT020TCU BECMG 2208/2211 28023G33KT BECMG 2212/2215 31013KT TEMPO 2212/2216 6000 SHRA SCT020CB BKN025 BECMG 2218/2221 28006KT BECMG 2223/2302 VRB03KT BECMG 2307/2310 20007KT